createdAt,value
2023-03-18T00:00:45.570Z,0.00
2023-03-18T00:01:45.573Z,0.00
2023-03-18T00:02:45.738Z,0.00
2023-03-18T00:03:45.603Z,0.00
2023-03-18T00:04:45.527Z,0.00
2023-03-18T00:05:45.541Z,0.00
2023-03-18T00:06:45.482Z,0.00
2023-03-18T00:07:45.542Z,0.00
2023-03-18T00:08:45.494Z,0.00
2023-03-18T00:09:45.480Z,0.00
2023-03-18T00:10:45.438Z,0.00
2023-03-18T00:11:45.446Z,0.00
2023-03-18T00:12:45.413Z,0.00
2023-03-18T00:13:45.441Z,0.00
2023-03-18T00:14:45.371Z,0.00
2023-03-18T00:15:45.421Z,0.00
2023-03-18T00:16:45.348Z,0.00
2023-03-18T00:17:45.376Z,0.00
2023-03-18T00:18:45.472Z,0.00
2023-03-18T00:19:45.359Z,0.00
2023-03-18T00:20:45.340Z,0.00
2023-03-18T00:21:45.305Z,0.00
2023-03-18T00:22:45.268Z,0.00
2023-03-18T00:23:45.292Z,0.00
2023-03-18T00:24:45.271Z,0.00
2023-03-18T00:25:45.254Z,0.00
2023-03-18T00:26:46.198Z,0.00
2023-03-18T00:27:45.234Z,0.00
2023-03-18T00:28:45.206Z,0.00
2023-03-18T00:29:45.212Z,0.00
2023-03-18T00:30:45.165Z,0.00
2023-03-18T00:31:45.271Z,0.00
2023-03-18T00:32:45.181Z,0.00
2023-03-18T00:33:45.158Z,0.00
2023-03-18T00:34:45.117Z,0.00
2023-03-18T00:35:45.188Z,0.00
2023-03-18T00:36:45.115Z,0.00
2023-03-18T00:37:45.104Z,0.00
2023-03-18T00:38:45.113Z,0.00
2023-03-18T00:39:45.088Z,0.00
2023-03-18T00:40:45.047Z,0.00
2023-03-18T00:41:45.083Z,0.00
2023-03-18T00:42:45.033Z,0.00
2023-03-18T00:43:45.062Z,0.00
2023-03-18T00:44:44.984Z,0.00
2023-03-18T00:45:44.997Z,0.00
2023-03-18T00:46:45.050Z,0.00
2023-03-18T00:47:44.975Z,0.00
2023-03-18T00:48:44.932Z,0.00
2023-03-18T00:49:44.956Z,0.00
2023-03-18T00:50:44.913Z,0.00
2023-03-18T00:51:44.957Z,0.00
2023-03-18T00:52:44.872Z,0.00
2023-03-18T00:53:44.899Z,0.00
2023-03-18T00:54:44.855Z,0.00
2023-03-18T00:55:44.870Z,0.00
2023-03-18T00:56:44.849Z,0.00
2023-03-18T00:57:44.830Z,0.00
2023-03-18T00:58:44.799Z,0.00
2023-03-18T00:59:44.794Z,0.00
2023-03-18T01:00:44.803Z,0.00
2023-03-18T01:01:44.847Z,0.00
2023-03-18T01:02:44.734Z,0.00
2023-03-18T01:03:44.777Z,0.00
2023-03-18T01:04:44.714Z,0.00
2023-03-18T01:05:44.724Z,0.00
2023-03-18T01:06:44.713Z,0.00
2023-03-18T01:07:44.704Z,0.00
2023-03-18T01:08:44.656Z,0.00
2023-03-18T01:09:44.703Z,0.00
2023-03-18T01:10:44.658Z,0.00
2023-03-18T01:11:44.642Z,0.00
2023-03-18T01:12:44.634Z,0.00
2023-03-18T01:13:44.632Z,0.00
2023-03-18T01:14:44.586Z,0.00
2023-03-18T01:15:44.581Z,0.00
2023-03-18T01:16:44.595Z,0.00
2023-03-18T01:17:44.563Z,0.00
2023-03-18T01:18:44.547Z,0.00
2023-03-18T01:19:44.554Z,0.00
2023-03-18T01:20:44.512Z,0.00
2023-03-18T01:21:44.519Z,0.00
2023-03-18T01:22:44.474Z,0.00
2023-03-18T01:23:44.517Z,0.00
2023-03-18T01:24:44.439Z,0.00
2023-03-18T01:25:44.461Z,0.00
2023-03-18T01:26:44.424Z,0.00
2023-03-18T01:27:44.453Z,0.00
2023-03-18T01:28:44.411Z,0.00
2023-03-18T01:29:44.422Z,0.00
2023-03-18T01:30:44.360Z,0.00
2023-03-18T01:31:44.448Z,0.00
2023-03-18T01:32:44.372Z,0.00
2023-03-18T01:33:44.374Z,0.00
2023-03-18T01:34:44.323Z,0.00
2023-03-18T01:35:44.402Z,0.00
2023-03-18T01:36:44.290Z,0.00
2023-03-18T01:37:44.312Z,0.00
2023-03-18T01:38:44.260Z,0.00
2023-03-18T01:39:44.258Z,0.00
2023-03-18T01:40:44.229Z,0.00
2023-03-18T01:41:44.286Z,0.00
2023-03-18T01:42:44.193Z,0.00
2023-03-18T01:43:44.230Z,0.00
2023-03-18T01:44:44.185Z,0.00
2023-03-18T01:45:44.227Z,0.00
2023-03-18T01:46:44.166Z,0.00
2023-03-18T01:47:44.157Z,0.00
2023-03-18T01:48:44.155Z,0.00
2023-03-18T01:49:44.138Z,0.00
2023-03-18T01:50:44.097Z,0.00
2023-03-18T01:51:44.110Z,0.00
2023-03-18T01:52:44.074Z,0.00
2023-03-18T01:53:44.110Z,0.00
2023-03-18T01:54:44.047Z,0.00
2023-03-18T01:55:44.056Z,0.00
2023-03-18T01:56:44.042Z,0.00
2023-03-18T01:57:44.064Z,0.00
2023-03-18T01:58:43.989Z,0.00
2023-03-18T01:59:44.001Z,0.00
2023-03-18T02:00:43.986Z,0.00
2023-03-18T02:01:43.973Z,0.00
2023-03-18T02:02:43.952Z,0.00
2023-03-18T02:03:43.954Z,0.00
2023-03-18T02:04:43.921Z,0.00
2023-03-18T02:05:43.914Z,0.00
2023-03-18T02:06:43.891Z,0.00
2023-03-18T02:07:43.964Z,0.00
2023-03-18T02:08:43.861Z,0.00
2023-03-18T02:09:43.864Z,0.00
2023-03-18T02:10:43.832Z,0.00
2023-03-18T02:11:43.857Z,0.00
2023-03-18T02:12:43.835Z,0.00
2023-03-18T02:13:43.835Z,0.00
2023-03-18T02:14:43.794Z,0.00
2023-03-18T02:15:43.793Z,0.00
2023-03-18T02:16:43.801Z,0.00
2023-03-18T02:17:43.748Z,0.00
2023-03-18T02:18:43.720Z,0.00
2023-03-18T02:19:43.765Z,0.00
2023-03-18T02:20:43.689Z,0.00
2023-03-18T02:21:43.799Z,0.00
2023-03-18T02:22:43.668Z,0.00
2023-03-18T02:23:43.684Z,0.00
2023-03-18T02:24:43.644Z,0.00
2023-03-18T02:25:43.677Z,0.00
2023-03-18T02:26:43.722Z,0.00
2023-03-18T02:27:43.615Z,0.00
2023-03-18T02:28:43.592Z,0.00
2023-03-18T02:29:43.635Z,0.00
2023-03-18T02:30:43.657Z,0.00
2023-03-18T02:31:43.588Z,0.00
2023-03-18T02:32:43.563Z,0.00
2023-03-18T02:33:43.548Z,0.00
2023-03-18T02:34:43.579Z,0.00
2023-03-18T02:35:43.562Z,0.00
2023-03-18T02:36:43.523Z,0.00
2023-03-18T02:37:43.519Z,0.00
2023-03-18T02:38:43.448Z,0.00
2023-03-18T02:39:43.513Z,0.00
2023-03-18T02:40:43.445Z,0.00
2023-03-18T02:41:43.496Z,0.00
2023-03-18T02:42:43.430Z,0.00
2023-03-18T02:43:43.429Z,0.00
2023-03-18T02:44:43.367Z,0.00
2023-03-18T02:45:43.402Z,0.00
2023-03-18T02:46:43.388Z,0.00
2023-03-18T02:47:43.377Z,0.00
2023-03-18T02:48:43.340Z,0.00
2023-03-18T02:49:43.341Z,0.00
2023-03-18T02:50:43.309Z,0.00
2023-03-18T02:51:43.357Z,0.00
2023-03-18T02:52:43.271Z,0.00
2023-03-18T02:53:43.285Z,0.00
2023-03-18T02:54:43.256Z,0.00
2023-03-18T02:55:43.249Z,0.00
2023-03-18T02:56:43.264Z,0.00
2023-03-18T02:57:43.231Z,0.00
2023-03-18T02:58:43.206Z,0.00
2023-03-18T02:59:43.218Z,0.00
2023-03-18T03:00:43.173Z,0.00
2023-03-18T03:01:43.372Z,0.00
2023-03-18T03:02:43.305Z,0.00
2023-03-18T03:03:43.241Z,0.00
2023-03-18T03:04:43.130Z,0.00
2023-03-18T03:05:43.127Z,0.00
2023-03-18T03:06:43.173Z,0.00
2023-03-18T03:07:43.147Z,0.00
2023-03-18T03:08:43.083Z,0.00
2023-03-18T03:09:43.068Z,0.00
2023-03-18T03:10:43.021Z,0.00
2023-03-18T03:11:43.065Z,0.00
2023-03-18T03:12:43.049Z,0.00
2023-03-18T03:13:43.026Z,0.00
2023-03-18T03:14:43.024Z,0.00
2023-03-18T03:15:43.049Z,0.00
2023-03-18T03:16:42.970Z,0.00
2023-03-18T03:17:43.000Z,0.00
2023-03-18T03:18:42.955Z,0.00
2023-03-18T03:19:42.961Z,0.00
2023-03-18T03:20:42.896Z,0.00
2023-03-18T03:21:42.914Z,0.00
2023-03-18T03:22:42.877Z,0.00
2023-03-18T03:23:42.905Z,0.00
2023-03-18T03:24:42.860Z,0.00
2023-03-18T03:25:42.857Z,0.00
2023-03-18T03:26:42.830Z,0.00
2023-03-18T03:27:42.840Z,0.00
2023-03-18T03:28:42.830Z,0.00
2023-03-18T03:29:42.818Z,0.00
2023-03-18T03:30:42.776Z,0.00
2023-03-18T03:31:42.793Z,0.00
2023-03-18T03:32:42.790Z,0.00
2023-03-18T03:33:42.790Z,0.00
2023-03-18T03:34:42.728Z,0.00
2023-03-18T03:35:42.742Z,0.00
2023-03-18T03:36:42.696Z,0.00
2023-03-18T03:37:42.751Z,0.00
2023-03-18T03:38:42.695Z,0.00
2023-03-18T03:39:42.676Z,0.00
2023-03-18T03:40:42.636Z,0.00
2023-03-18T03:41:42.641Z,0.00
2023-03-18T03:42:42.652Z,0.00
2023-03-18T03:43:42.620Z,0.00
2023-03-18T03:44:42.590Z,0.00
2023-03-18T03:45:42.611Z,0.00
2023-03-18T03:46:42.600Z,0.00
2023-03-18T03:47:42.633Z,0.00
2023-03-18T03:48:42.568Z,0.00
2023-03-18T03:49:42.556Z,0.00
2023-03-18T03:50:42.527Z,0.00
2023-03-18T03:51:42.553Z,0.00
2023-03-18T03:52:42.466Z,0.00
2023-03-18T03:53:42.477Z,0.00
2023-03-18T03:54:42.457Z,0.00
2023-03-18T03:55:42.479Z,0.00
2023-03-18T03:56:42.441Z,0.00
2023-03-18T03:57:42.398Z,0.00
2023-03-18T03:58:42.431Z,0.00
2023-03-18T03:59:42.400Z,0.00
2023-03-18T04:00:42.397Z,0.00
2023-03-18T04:01:42.409Z,0.00
2023-03-18T04:02:42.435Z,0.00
2023-03-18T04:03:42.333Z,0.00
2023-03-18T04:04:42.337Z,0.00
2023-03-18T04:05:42.310Z,0.00
2023-03-18T04:06:42.384Z,0.00
2023-03-18T04:07:42.272Z,0.00
2023-03-18T04:08:42.283Z,0.00
2023-03-18T04:09:42.261Z,0.00
2023-03-18T04:10:42.274Z,0.00
2023-03-18T04:11:42.249Z,0.00
2023-03-18T04:12:42.245Z,0.00
2023-03-18T04:13:42.211Z,0.00
2023-03-18T04:14:42.220Z,0.00
2023-03-18T04:15:42.309Z,0.00
2023-03-18T04:16:42.200Z,0.00
2023-03-18T04:17:42.142Z,0.00
2023-03-18T04:18:42.161Z,0.00
2023-03-18T04:19:42.110Z,0.00
2023-03-18T04:20:42.134Z,0.00
2023-03-18T04:21:42.083Z,0.00
2023-03-18T04:22:42.158Z,0.00
2023-03-18T04:23:42.058Z,0.00
2023-03-18T04:24:42.069Z,0.00
2023-03-18T04:25:42.055Z,0.00
2023-03-18T04:26:42.065Z,0.00
2023-03-18T04:27:42.034Z,0.00
2023-03-18T04:28:42.040Z,0.00
2023-03-18T04:29:41.982Z,0.00
2023-03-18T04:30:41.988Z,0.00
2023-03-18T04:31:42.012Z,0.00
2023-03-18T04:32:42.064Z,0.00
2023-03-18T04:33:41.935Z,0.00
2023-03-18T04:34:41.962Z,0.00
2023-03-18T04:35:41.924Z,0.00
2023-03-18T04:36:41.928Z,0.00
2023-03-18T04:37:41.888Z,0.00
2023-03-18T04:38:41.884Z,0.00
2023-03-18T04:39:41.869Z,0.00
2023-03-18T04:40:41.882Z,0.00
2023-03-18T04:41:41.837Z,0.00
2023-03-18T04:42:41.834Z,0.00
2023-03-18T04:43:41.843Z,0.00
2023-03-18T04:44:41.850Z,0.00
2023-03-18T04:45:41.776Z,0.00
2023-03-18T04:46:41.824Z,0.00
2023-03-18T04:47:41.740Z,0.00
2023-03-18T04:48:41.744Z,0.00
2023-03-18T04:49:41.738Z,0.00
2023-03-18T04:50:41.724Z,0.00
2023-03-18T04:51:41.698Z,0.00
2023-03-18T04:52:41.709Z,0.00
2023-03-18T04:53:41.662Z,0.00
2023-03-18T04:54:41.703Z,0.00
2023-03-18T04:55:41.651Z,0.00
2023-03-18T04:56:41.668Z,0.00
2023-03-18T04:57:41.617Z,0.00
2023-03-18T04:58:41.608Z,0.00
2023-03-18T04:59:41.583Z,0.00
2023-03-18T05:00:41.616Z,0.00
2023-03-18T05:01:41.586Z,0.00
2023-03-18T05:02:41.578Z,0.00
2023-03-18T05:03:41.561Z,0.00
2023-03-18T05:04:41.557Z,0.00
2023-03-18T05:05:41.521Z,0.00
2023-03-18T05:06:41.555Z,0.00
2023-03-18T05:07:41.478Z,0.00
2023-03-18T05:08:41.498Z,0.00
2023-03-18T05:09:41.486Z,0.00
2023-03-18T05:10:41.502Z,0.00
2023-03-18T05:11:41.453Z,0.00
2023-03-18T05:12:41.429Z,0.00
2023-03-18T05:13:41.396Z,0.00
2023-03-18T05:14:41.404Z,0.00
2023-03-18T05:15:41.359Z,0.00
2023-03-18T05:16:41.440Z,0.00
2023-03-18T05:17:41.369Z,0.00
2023-03-18T05:18:41.362Z,0.00
2023-03-18T05:19:41.325Z,0.00
2023-03-18T05:20:41.343Z,0.00
2023-03-18T05:21:41.339Z,0.00
2023-03-18T05:22:41.306Z,0.00
2023-03-18T05:23:41.267Z,4.00
2023-03-18T05:24:41.272Z,0.00
2023-03-18T05:25:41.235Z,0.00
2023-03-18T05:26:41.271Z,0.00
2023-03-18T05:27:41.210Z,4.00
2023-03-18T05:28:41.238Z,4.00
2023-03-18T05:29:41.192Z,0.00
2023-03-18T05:30:41.209Z,0.00
2023-03-18T05:31:41.310Z,4.00
2023-03-18T05:32:41.196Z,4.00
2023-03-18T05:33:41.154Z,4.00
2023-03-18T05:34:41.148Z,4.00
2023-03-18T05:35:41.136Z,8.00
2023-03-18T05:36:41.112Z,4.00
2023-03-18T05:37:41.104Z,8.00
2023-03-18T05:38:41.095Z,4.00
2023-03-18T05:39:42.496Z,8.00
2023-03-18T05:40:41.057Z,8.00
2023-03-18T05:41:41.124Z,8.00
2023-03-18T05:42:55.068Z,8.00
2023-03-18T05:43:41.029Z,8.00
2023-03-18T05:44:41.014Z,12.00
2023-03-18T05:45:41.237Z,8.00
2023-03-18T05:46:41.037Z,12.00
2023-03-18T05:47:40.969Z,12.00
2023-03-18T05:48:40.964Z,12.00
2023-03-18T05:49:40.928Z,12.00
2023-03-18T05:50:40.965Z,16.00
2023-03-18T05:51:40.901Z,12.00
2023-03-18T05:52:40.907Z,16.00
2023-03-18T05:53:40.867Z,16.00
2023-03-18T05:54:40.919Z,16.00
2023-03-18T05:55:40.856Z,16.00
2023-03-18T05:56:40.857Z,20.00
2023-03-18T05:57:40.820Z,20.00
2023-03-18T05:58:40.832Z,24.00
2023-03-18T05:59:40.835Z,24.00
2023-03-18T06:00:40.814Z,24.00
2023-03-18T06:01:40.766Z,32.00
2023-03-18T06:02:40.797Z,32.00
2023-03-18T06:03:40.803Z,36.00
2023-03-18T06:04:40.770Z,40.00
2023-03-18T06:05:40.711Z,40.00
2023-03-18T06:06:40.821Z,48.00
2023-03-18T06:07:40.693Z,48.00
2023-03-18T06:08:40.735Z,52.00
2023-03-18T06:09:40.673Z,52.00
2023-03-18T06:10:40.678Z,56.00
2023-03-18T06:11:40.654Z,64.00
2023-03-18T06:12:40.666Z,64.00
2023-03-18T06:13:40.609Z,64.00
2023-03-18T06:14:40.648Z,68.00
2023-03-18T06:15:40.591Z,68.00
2023-03-18T06:16:40.670Z,72.00
2023-03-18T06:17:40.584Z,84.00
2023-03-18T06:18:40.569Z,88.00
2023-03-18T06:19:40.555Z,92.00
2023-03-18T06:20:40.568Z,92.00
2023-03-18T06:21:40.532Z,80.00
2023-03-18T06:22:40.511Z,72.00
2023-03-18T06:23:40.483Z,76.00
2023-03-18T06:24:40.521Z,76.00
2023-03-18T06:25:40.495Z,80.00
2023-03-18T06:26:40.470Z,80.00
2023-03-18T06:27:40.422Z,80.00
2023-03-18T06:28:40.538Z,100.00
2023-03-18T06:29:40.426Z,132.00
2023-03-18T06:30:40.480Z,136.00
2023-03-18T06:31:40.363Z,152.00
2023-03-18T06:32:40.594Z,152.00
2023-03-18T06:33:40.381Z,140.00
2023-03-18T06:34:40.345Z,160.00
2023-03-18T06:35:40.365Z,176.00
2023-03-18T06:36:40.333Z,184.00
2023-03-18T06:37:40.294Z,188.00
2023-03-18T06:38:40.331Z,196.00
2023-03-18T06:39:41.371Z,212.00
2023-03-18T06:40:40.291Z,220.00
2023-03-18T06:41:40.248Z,220.00
2023-03-18T06:42:40.252Z,228.00
2023-03-18T06:43:40.212Z,240.00
2023-03-18T06:44:40.292Z,236.00
2023-03-18T06:45:40.188Z,228.00
2023-03-18T06:46:42.657Z,248.00
2023-03-18T06:47:40.179Z,244.00
2023-03-18T06:48:40.190Z,244.00
2023-03-18T06:49:40.154Z,248.00
2023-03-18T06:50:40.162Z,248.00
2023-03-18T06:51:40.123Z,248.00
2023-03-18T06:52:40.134Z,252.00
2023-03-18T06:53:40.112Z,228.00
2023-03-18T06:54:40.098Z,248.00
2023-03-18T06:55:40.055Z,276.00
2023-03-18T06:56:40.084Z,284.00
2023-03-18T06:57:40.030Z,288.00
2023-03-18T06:58:40.074Z,296.00
2023-03-18T06:59:40.033Z,308.00
2023-03-18T07:00:40.033Z,312.00
2023-03-18T07:01:40.068Z,316.00
2023-03-18T07:02:40.049Z,336.00
2023-03-18T07:03:39.954Z,344.00
2023-03-18T07:04:40.027Z,352.00
2023-03-18T07:05:39.922Z,352.00
2023-03-18T07:06:39.979Z,364.00
2023-03-18T07:07:39.910Z,392.00
2023-03-18T07:08:39.937Z,416.00
2023-03-18T07:09:39.861Z,440.00
2023-03-18T07:10:39.878Z,464.00
2023-03-18T07:11:39.871Z,488.00
2023-03-18T07:12:39.872Z,500.00
2023-03-18T07:13:39.837Z,512.00
2023-03-18T07:14:39.836Z,512.00
2023-03-18T07:15:39.841Z,496.00
2023-03-18T07:16:39.838Z,500.00
2023-03-18T07:17:39.800Z,500.00
2023-03-18T07:18:39.785Z,516.00
2023-03-18T07:19:39.757Z,500.00
2023-03-18T07:20:40.667Z,560.00
2023-03-18T07:21:39.735Z,596.00
2023-03-18T07:22:39.740Z,628.00
2023-03-18T07:23:39.704Z,648.00
2023-03-18T07:24:39.766Z,676.00
2023-03-18T07:25:39.720Z,708.00
2023-03-18T07:26:39.713Z,740.00
2023-03-18T07:27:39.704Z,784.00
2023-03-18T07:28:39.678Z,832.00
2023-03-18T07:29:39.625Z,880.00
2023-03-18T07:30:39.653Z,928.00
2023-03-18T07:31:40.203Z,980.00
2023-03-18T07:32:39.711Z,1016.00
2023-03-18T07:33:39.590Z,1056.00
2023-03-18T07:34:39.559Z,1096.00
2023-03-18T07:35:39.541Z,1132.00
2023-03-18T07:36:39.552Z,1168.00
2023-03-18T07:37:39.512Z,1196.00
2023-03-18T07:38:39.548Z,1220.00
2023-03-18T07:39:39.506Z,1232.00
2023-03-18T07:40:39.477Z,1252.00
2023-03-18T07:41:39.441Z,1260.00
2023-03-18T07:42:39.462Z,1272.00
2023-03-18T07:43:39.440Z,1284.00
2023-03-18T07:44:39.489Z,1288.00
2023-03-18T07:45:39.509Z,1280.00
2023-03-18T07:46:39.548Z,1280.00
2023-03-18T07:47:39.366Z,1284.00
2023-03-18T07:48:39.373Z,1280.00
2023-03-18T07:49:39.356Z,1272.00
2023-03-18T07:50:39.440Z,1280.00
2023-03-18T07:51:39.323Z,1288.00
2023-03-18T07:52:39.326Z,1284.00
2023-03-18T07:53:39.281Z,1292.00
2023-03-18T07:54:39.305Z,1284.00
2023-03-18T07:55:39.281Z,1292.00
2023-03-18T07:56:39.281Z,1276.00
2023-03-18T07:57:39.309Z,1272.00
2023-03-18T07:58:39.260Z,1264.00
2023-03-18T07:59:39.224Z,1272.00
2023-03-18T08:00:39.222Z,1272.00
2023-03-18T08:01:39.180Z,1272.00
2023-03-18T08:02:39.215Z,1264.00
2023-03-18T08:03:39.169Z,1252.00
2023-03-18T08:04:39.182Z,1256.00
2023-03-18T08:05:39.114Z,1260.00
2023-03-18T08:06:39.133Z,1268.00
2023-03-18T08:07:39.129Z,1272.00
2023-03-18T08:08:39.133Z,1264.00
2023-03-18T08:09:39.093Z,1260.00
2023-03-18T08:10:39.065Z,1260.00
2023-03-18T08:11:39.055Z,1256.00
2023-03-18T08:12:52.212Z,1264.00
2023-03-18T08:13:39.057Z,1256.00
2023-03-18T08:14:38.995Z,1256.00
2023-03-18T08:15:39.026Z,1252.00
2023-03-18T08:16:39.028Z,1244.00
2023-03-18T08:17:38.982Z,1252.00
2023-03-18T08:18:38.954Z,1256.00
2023-03-18T08:19:38.989Z,1256.00
2023-03-18T08:20:38.925Z,1248.00
2023-03-18T08:21:38.927Z,1240.00
2023-03-18T08:22:38.916Z,1244.00
2023-03-18T08:23:38.933Z,1252.00
2023-03-18T08:24:38.921Z,1260.00
2023-03-18T08:25:38.898Z,1264.00
2023-03-18T08:26:38.864Z,1260.00
2023-03-18T08:27:38.846Z,1252.00
2023-03-18T08:28:38.829Z,1252.00
2023-03-18T08:29:38.847Z,1256.00
2023-03-18T08:30:38.798Z,1252.00
2023-03-18T08:31:38.891Z,1248.00
2023-03-18T08:32:38.806Z,1244.00
2023-03-18T08:33:38.781Z,1244.00
2023-03-18T08:34:38.751Z,1244.00
2023-03-18T08:35:38.828Z,1248.00
2023-03-18T08:36:38.707Z,1236.00
2023-03-18T08:37:38.716Z,1232.00
2023-03-18T08:38:38.680Z,1240.00
2023-03-18T08:39:38.710Z,1240.00
2023-03-18T08:40:38.688Z,1212.00
2023-03-18T08:41:38.684Z,1220.00
2023-03-18T08:42:38.669Z,1208.00
2023-03-18T08:43:39.219Z,1208.00
2023-03-18T08:44:38.631Z,1212.00
2023-03-18T08:45:38.657Z,1212.00
2023-03-18T08:46:38.635Z,1208.00
2023-03-18T08:47:38.656Z,1200.00
2023-03-18T08:48:38.558Z,1200.00
2023-03-18T08:49:38.578Z,1208.00
2023-03-18T08:50:38.560Z,1216.00
2023-03-18T08:51:38.557Z,1228.00
2023-03-18T08:52:38.512Z,1204.00
2023-03-18T08:53:38.508Z,1132.00
2023-03-18T08:54:38.474Z,912.00
2023-03-18T08:55:38.520Z,500.00
2023-03-18T08:56:38.488Z,1060.00
2023-03-18T08:57:38.465Z,1208.00
2023-03-18T08:58:38.434Z,1208.00
2023-03-18T08:59:38.454Z,1184.00
2023-03-18T09:00:38.417Z,1184.00
2023-03-18T09:01:38.508Z,1184.00
2023-03-18T09:02:38.374Z,1184.00
2023-03-18T09:03:38.415Z,1184.00
2023-03-18T09:04:38.387Z,1176.00
2023-03-18T09:05:38.344Z,1164.00
2023-03-18T09:06:38.313Z,1128.00
2023-03-18T09:07:38.354Z,1140.00
2023-03-18T09:08:38.333Z,1160.00
2023-03-18T09:09:43.577Z,1176.00
2023-03-18T09:10:38.348Z,1184.00
2023-03-18T09:11:38.258Z,1192.00
2023-03-18T09:12:38.224Z,1192.00
2023-03-18T09:13:39.261Z,1196.00
2023-03-18T09:14:38.212Z,1188.00
2023-03-18T09:15:38.211Z,1124.00
2023-03-18T09:16:38.218Z,1176.00
2023-03-18T09:17:53.435Z,1172.00
2023-03-18T09:18:38.185Z,1184.00
2023-03-18T09:19:38.205Z,1204.00
2023-03-18T09:20:38.119Z,1224.00
2023-03-18T09:21:38.149Z,1160.00
2023-03-18T09:22:38.105Z,1016.00
2023-03-18T09:23:38.138Z,1060.00
2023-03-18T09:24:38.144Z,1092.00
2023-03-18T09:25:38.078Z,1128.00
2023-03-18T09:26:38.050Z,1204.00
2023-03-18T09:27:38.041Z,1176.00
2023-03-18T09:28:38.019Z,1048.00
2023-03-18T09:29:38.054Z,748.00
2023-03-18T09:30:38.227Z,832.00
2023-03-18T09:31:38.006Z,1024.00
2023-03-18T09:32:37.961Z,1032.00
2023-03-18T09:33:37.969Z,1016.00
2023-03-18T09:34:37.939Z,904.00
2023-03-18T09:35:38.091Z,784.00
2023-03-18T09:36:37.909Z,880.00
2023-03-18T09:37:37.962Z,1048.00
2023-03-18T09:38:38.033Z,1036.00
2023-03-18T09:39:37.900Z,968.00
2023-03-18T09:40:38.543Z,960.00
2023-03-18T09:41:37.874Z,1072.00
2023-03-18T09:42:37.832Z,1036.00
2023-03-18T09:43:37.848Z,1012.00
2023-03-18T09:44:37.857Z,928.00
2023-03-18T09:45:37.850Z,736.00
2023-03-18T09:46:37.869Z,500.00
2023-03-18T09:47:37.816Z,460.00
2023-03-18T09:48:37.755Z,476.00
2023-03-18T09:49:37.778Z,468.00
2023-03-18T09:50:37.759Z,528.00
2023-03-18T09:51:37.784Z,492.00
2023-03-18T09:52:37.721Z,508.00
2023-03-18T09:53:38.674Z,612.00
2023-03-18T09:54:37.675Z,680.00
2023-03-18T09:55:37.680Z,616.00
2023-03-18T09:56:37.647Z,780.00
2023-03-18T09:57:37.690Z,544.00
2023-03-18T09:58:37.599Z,516.00
2023-03-18T09:59:37.657Z,800.00
2023-03-18T10:00:37.614Z,968.00
2023-03-18T10:01:37.756Z,992.00
2023-03-18T10:02:37.551Z,1088.00
2023-03-18T10:03:37.793Z,1016.00
2023-03-18T10:04:37.562Z,952.00
2023-03-18T10:05:37.561Z,608.00
2023-03-18T10:06:37.545Z,732.00
2023-03-18T10:07:37.516Z,864.00
2023-03-18T10:08:37.537Z,960.00
2023-03-18T10:09:37.534Z,844.00
2023-03-18T10:10:37.522Z,816.00
2023-03-18T10:11:37.487Z,764.00
2023-03-18T10:12:37.439Z,560.00
2023-03-18T10:13:37.451Z,628.00
2023-03-18T10:14:37.416Z,760.00
2023-03-18T10:15:37.601Z,544.00
2023-03-18T10:16:37.377Z,584.00
2023-03-18T10:17:37.382Z,524.00
2023-03-18T10:18:37.343Z,556.00
2023-03-18T10:19:37.426Z,552.00
2023-03-18T10:20:37.377Z,528.00
2023-03-18T10:21:37.344Z,516.00
2023-03-18T10:22:37.310Z,568.00
2023-03-18T10:23:37.314Z,588.00
2023-03-18T10:24:37.270Z,640.00
2023-03-18T10:25:37.335Z,684.00
2023-03-18T10:26:37.266Z,700.00
2023-03-18T10:27:37.258Z,736.00
2023-03-18T10:28:37.237Z,696.00
2023-03-18T10:29:37.253Z,564.00
2023-03-18T10:30:37.602Z,516.00
2023-03-18T10:31:37.293Z,468.00
2023-03-18T10:32:49.112Z,476.00
2023-03-18T10:33:37.230Z,520.00
2023-03-18T10:34:37.166Z,612.00
2023-03-18T10:35:37.256Z,620.00
2023-03-18T10:36:37.133Z,552.00
2023-03-18T10:37:37.138Z,404.00
2023-03-18T10:38:37.092Z,352.00
2023-03-18T10:39:37.143Z,364.00
2023-03-18T10:40:37.063Z,352.00
2023-03-18T10:41:37.101Z,388.00
2023-03-18T10:42:37.070Z,420.00
2023-03-18T10:43:37.038Z,344.00
2023-03-18T10:44:37.036Z,396.00
2023-03-18T10:45:37.024Z,404.00
2023-03-18T10:46:37.184Z,380.00
2023-03-18T10:47:37.083Z,404.00
2023-03-18T10:48:36.985Z,468.00
2023-03-18T10:49:36.986Z,464.00
2023-03-18T10:50:37.172Z,468.00
2023-03-18T10:51:37.011Z,444.00
2023-03-18T10:52:36.940Z,492.00
2023-03-18T10:53:36.951Z,496.00
2023-03-18T10:54:36.900Z,464.00
2023-03-18T10:55:36.878Z,408.00
2023-03-18T10:56:36.897Z,396.00
2023-03-18T10:57:36.873Z,400.00
2023-03-18T10:58:36.856Z,428.00
2023-03-18T10:59:36.816Z,420.00
2023-03-18T11:00:36.845Z,392.00
2023-03-18T11:01:36.844Z,380.00
2023-03-18T11:02:36.904Z,388.00
2023-03-18T11:03:36.891Z,384.00
2023-03-18T11:04:36.835Z,356.00
2023-03-18T11:05:36.794Z,368.00
2023-03-18T11:06:36.850Z,336.00
2023-03-18T11:07:36.701Z,364.00
2023-03-18T11:08:36.703Z,348.00
2023-03-18T11:09:36.687Z,308.00
2023-03-18T11:10:36.882Z,308.00
2023-03-18T11:11:36.652Z,312.00
2023-03-18T11:12:36.669Z,304.00
2023-03-18T11:13:36.623Z,288.00
2023-03-18T11:14:37.219Z,296.00
2023-03-18T11:15:36.601Z,308.00
2023-03-18T11:16:36.672Z,324.00
2023-03-18T11:17:36.583Z,340.00
2023-03-18T11:18:36.679Z,340.00
2023-03-18T11:19:36.562Z,368.00
2023-03-18T11:20:36.587Z,408.00
2023-03-18T11:21:36.520Z,404.00
2023-03-18T11:22:36.541Z,360.00
2023-03-18T11:23:36.501Z,332.00
2023-03-18T11:24:36.672Z,332.00
2023-03-18T11:25:36.486Z,368.00
2023-03-18T11:26:36.485Z,364.00
2023-03-18T11:27:36.484Z,368.00
2023-03-18T11:28:36.450Z,404.00
2023-03-18T11:29:36.446Z,368.00
2023-03-18T11:30:36.548Z,380.00
2023-03-18T11:31:36.452Z,388.00
2023-03-18T11:32:36.479Z,404.00
2023-03-18T11:33:36.358Z,436.00
2023-03-18T11:34:36.378Z,420.00
2023-03-18T11:35:36.410Z,432.00
2023-03-18T11:36:36.354Z,464.00
2023-03-18T11:37:36.298Z,428.00
2023-03-18T11:38:36.315Z,452.00
2023-03-18T11:39:36.280Z,408.00
2023-03-18T11:40:36.312Z,400.00
2023-03-18T11:41:36.293Z,424.00
2023-03-18T11:42:36.286Z,376.00
2023-03-18T11:43:36.225Z,380.00
2023-03-18T11:44:36.253Z,344.00
2023-03-18T11:45:36.228Z,308.00
2023-03-18T11:46:36.285Z,308.00
2023-03-18T11:47:36.149Z,320.00
2023-03-18T11:48:36.220Z,336.00
2023-03-18T11:49:36.156Z,324.00
2023-03-18T11:50:36.179Z,336.00
2023-03-18T11:51:36.116Z,340.00
2023-03-18T11:52:36.143Z,360.00
2023-03-18T11:53:36.164Z,324.00
2023-03-18T11:54:36.129Z,312.00
2023-03-18T11:55:36.092Z,328.00
2023-03-18T11:56:36.079Z,328.00
2023-03-18T11:57:36.029Z,308.00
2023-03-18T11:58:36.104Z,312.00
2023-03-18T11:59:36.040Z,312.00
2023-03-18T12:00:36.050Z,304.00
2023-03-18T12:01:36.030Z,284.00
2023-03-18T12:02:35.995Z,288.00
2023-03-18T12:03:35.952Z,292.00
2023-03-18T12:04:36.609Z,296.00
2023-03-18T12:05:35.949Z,308.00
2023-03-18T12:06:35.941Z,296.00
2023-03-18T12:07:38.154Z,304.00
2023-03-18T12:08:35.912Z,304.00
2023-03-18T12:09:35.882Z,308.00
2023-03-18T12:10:35.918Z,280.00
2023-03-18T12:11:35.918Z,280.00
2023-03-18T12:12:35.911Z,272.00
2023-03-18T12:13:37.516Z,280.00
2023-03-18T12:14:35.826Z,284.00
2023-03-18T12:15:35.796Z,288.00
2023-03-18T12:16:35.842Z,300.00
2023-03-18T12:17:35.802Z,300.00
2023-03-18T12:18:35.801Z,304.00
2023-03-18T12:19:35.740Z,300.00
2023-03-18T12:20:35.926Z,296.00
2023-03-18T12:21:35.718Z,296.00
2023-03-18T12:22:35.740Z,288.00
2023-03-18T12:23:35.753Z,284.00
2023-03-18T12:24:35.689Z,272.00
2023-03-18T12:25:35.663Z,272.00
2023-03-18T12:26:35.698Z,268.00
2023-03-18T12:27:35.630Z,272.00
2023-03-18T12:28:35.669Z,276.00
2023-03-18T12:29:35.649Z,280.00
2023-03-18T12:30:35.606Z,268.00
2023-03-18T12:31:35.728Z,284.00
2023-03-18T12:32:35.712Z,288.00
2023-03-18T12:33:35.599Z,284.00
2023-03-18T12:34:35.571Z,276.00
2023-03-18T12:35:35.968Z,272.00
2023-03-18T12:36:35.547Z,260.00
2023-03-18T12:37:35.545Z,272.00
2023-03-18T12:38:35.508Z,272.00
2023-03-18T12:39:35.526Z,260.00
2023-03-18T12:40:35.597Z,264.00
2023-03-18T12:41:37.214Z,276.00
2023-03-18T12:42:35.440Z,300.00
2023-03-18T12:43:35.506Z,300.00
2023-03-18T12:44:35.415Z,284.00
2023-03-18T12:45:35.529Z,272.00
2023-03-18T12:46:35.389Z,272.00
2023-03-18T12:47:37.137Z,268.00